Time;durP1;ratioP1;P1;durP2;ratioP2;P2;SDS_P1;SDS_P2;PMS_P1;PMS_P2;Temp;Humidity;BMP_temperature;BMP_pressure;BME280_temperature;BME280_humidity;BME280_pressure;Samples;Min_cycle;Max_cycle;Signal;HPM_P1;HPM_P2
2022/01/13 00:00:05;;;;;;;51.13;24.20;;;6.50;64.30;;;;;;4979965;28;20038;-56
2022/01/13 00:02:34;;;;;;;55.75;23.50;;;6.60;64.50;;;;;;4978676;28;20026;-56
2022/01/13 00:05:01;;;;;;;50.72;22.63;;;6.60;64.50;;;;;;4977678;28;20038;-55
2022/01/13 00:07:27;;;;;;;52.17;23.55;;;6.70;64.30;;;;;;4974938;28;20029;-56
2022/01/13 00:09:53;;;;;;;55.03;24.38;;;6.70;64.20;;;;;;4980324;28;20033;-56
2022/01/13 00:12:21;;;;;;;52.65;24.17;;;6.70;64.00;;;;;;4977263;28;20027;-58
2022/01/13 00:15:07;;;;;;;56.90;24.77;;;6.80;63.90;;;;;;4976776;28;20042;-56
2022/01/13 00:17:56;;;;;;;55.92;25.52;;;6.80;63.70;;;;;;4970350;28;20503;-56
2022/01/13 00:25:38;;;;;;;60.75;25.35;;;6.90;63.30;;;;;;4975677;28;20510;-58
2022/01/13 00:28:16;;;;;;;64.40;27.95;;;6.90;63.20;;;;;;4974660;28;20042;-56
2022/01/13 00:30:43;;;;;;;71.00;31.27;;;6.90;63.00;;;;;;4978180;28;20027;-55
2022/01/13 00:33:11;;;;;;;75.55;30.05;;;6.90;62.60;;;;;;4975517;28;20046;-56
2022/01/13 00:35:38;;;;;;;70.22;29.10;;;6.90;62.50;;;;;;4978424;28;20033;-53
2022/01/13 00:38:04;;;;;;;62.65;27.45;;;6.80;62.50;;;;;;4977014;28;20046;-56
2022/01/13 00:40:30;;;;;;;62.65;27.05;;;6.80;62.50;;;;;;4979940;28;20027;-54
2022/01/13 00:42:56;;;;;;;56.72;25.90;;;6.80;62.60;;;;;;4961178;28;20071;-55
2022/01/13 00:45:22;;;;;;;67.15;26.02;;;6.80;62.60;;;;;;4977080;28;20031;-54
2022/01/13 00:47:48;;;;;;;63.78;27.90;;;6.80;62.60;;;;;;4974941;28;20026;-58
2022/01/13 00:50:15;;;;;;;70.93;29.88;;;6.80;62.50;;;;;;4973638;28;20054;-56
2022/01/13 00:52:41;;;;;;;69.30;30.85;;;6.80;62.40;;;;;;4975622;28;20422;-54
2022/01/13 00:55:10;;;;;;;67.60;29.92;;;6.80;62.40;;;;;;4979227;28;20038;-57
2022/01/13 00:57:36;;;;;;;62.65;29.50;;;6.80;62.40;;;;;;4956670;28;20046;-56
2022/01/13 01:00:03;;;;;;;65.00;27.70;;;6.80;62.50;;;;;;4977023;28;20498;-57
2022/01/13 01:02:29;;;;;;;70.60;30.20;;;6.80;62.50;;;;;;4976791;28;20025;-56
2022/01/13 01:04:56;;;;;;;65.13;30.52;;;6.80;62.60;;;;;;4979696;28;20375;-57
2022/01/13 01:07:22;;;;;;;65.18;28.95;;;6.80;62.60;;;;;;4975142;28;20031;-57
2022/01/13 01:09:50;;;;;;;70.78;30.52;;;6.80;62.60;;;;;;4978070;28;20517;-55
2022/01/13 01:12:18;;;;;;;67.95;29.05;;;6.80;62.50;;;;;;4969761;28;20057;-56
2022/01/13 01:14:49;;;;;;;75.20;31.08;;;6.80;62.50;;;;;;4974526;28;20037;-54
2022/01/13 01:17:16;;;;;;;70.03;29.13;;;6.80;62.50;;;;;;4971181;28;20042;-57
2022/01/13 01:19:47;;;;;;;66.05;29.80;;;6.80;62.60;;;;;;4979073;28;20033;-52
2022/01/13 01:25:21;;;;;;;71.05;29.80;;;6.80;62.60;;;;;;4977146;28;20053;-56
2022/01/13 01:27:51;;;;;;;78.25;31.50;;;6.80;62.50;;;;;;4973173;28;20359;-58
2022/01/13 01:30:37;;;;;;;71.90;30.80;;;6.80;62.40;;;;;;4977792;28;20038;-55
2022/01/13 01:33:03;;;;;;;69.30;30.85;;;6.80;62.30;;;;;;4975660;28;20045;-57
2022/01/13 01:35:29;;;;;;;70.25;30.70;;;6.80;62.30;;;;;;4978485;28;20053;-56
2022/01/13 01:37:56;;;;;;;69.20;30.17;;;6.80;62.30;;;;;;4978525;28;20047;-57
2022/01/13 01:40:22;;;;;;;64.30;28.15;;;6.80;62.30;;;;;;4983255;28;20034;-56
2022/01/13 01:42:49;;;;;;;63.17;27.42;;;6.80;62.30;;;;;;4979162;28;20042;-57
2022/01/13 01:45:17;;;;;;;65.28;30.15;;;6.80;62.30;;;;;;4980838;28;20050;-56
2022/01/13 01:47:44;;;;;;;57.97;27.75;;;6.80;62.20;;;;;;4974122;28;20035;-58
2022/01/13 01:50:18;;;;;;;66.15;29.17;;;6.70;62.00;;;;;;4979789;28;20061;-57
2022/01/13 01:52:49;;;;;;;67.70;29.10;;;6.70;62.00;;;;;;4982971;28;20038;-56
2022/01/13 01:55:16;;;;;;;66.63;29.40;;;6.80;62.10;;;;;;4981996;28;20037;-56
2022/01/13 01:57:44;;;;;;;70.75;28.40;;;6.80;62.10;;;;;;4975563;28;21250;-55
2022/01/13 02:00:14;;;;;;;63.13;29.58;;;6.80;62.80;;;;;;4981128;28;20053;-57
2022/01/13 02:02:43;;;;;;;77.80;32.08;;;6.80;62.00;;;;;;4979477;28;20043;-55
2022/01/13 02:05:10;;;;;;;72.20;30.70;;;6.70;61.80;;;;;;4981595;28;20034;-56
2022/01/13 02:07:37;;;;;;;75.60;30.92;;;6.70;61.90;;;;;;4972707;28;20050;-57
2022/01/13 02:10:04;;;;;;;72.25;31.30;;;6.70;61.70;;;;;;4980170;28;20463;-56
2022/01/13 02:12:42;;;;;;;74.32;31.08;;;6.70;61.60;;;;;;4978166;28;20022;-57
2022/01/13 02:17:40;;;;;;;65.78;29.35;;;6.70;61.60;;;;;;4975579;28;20027;-56
2022/01/13 02:20:09;;;;;;;70.30;30.00;;;6.70;61.50;;;;;;4978070;28;20439;-55
2022/01/13 02:22:35;;;;;;;66.60;29.45;;;6.70;61.50;;;;;;4980796;28;20034;-55
2022/01/13 02:25:04;;;;;;;69.60;30.98;;;6.70;61.60;;;;;;4978326;28;20369;-54
2022/01/13 02:27:30;;;;;;;70.93;29.73;;;6.60;61.50;;;;;;4975753;28;20512;-54
2022/01/13 02:29:56;;;;;;;68.45;31.17;;;6.60;61.60;;;;;;4978723;28;20390;-55
2022/01/13 02:32:23;;;;;;;68.75;30.15;;;6.60;61.50;;;;;;4977829;28;20038;-56
2022/01/13 02:34:49;;;;;;;75.38;31.20;;;6.60;61.50;;;;;;4982181;28;20034;-58
2022/01/13 02:37:15;;;;;;;71.50;30.77;;;6.60;61.50;;;;;;4977527;28;20042;-57
2022/01/13 02:39:42;;;;;;;67.38;29.65;;;6.60;61.50;;;;;;4973488;28;20030;-56
2022/01/13 02:42:14;;;;;;;78.95;31.88;;;6.60;61.60;;;;;;4975982;28;20037;-55
2022/01/13 02:44:50;;;;;;;71.60;31.20;;;6.60;61.60;;;;;;4981350;28;20045;-56
2022/01/13 02:50:05;;;;;;;72.15;30.38;;;6.60;61.70;;;;;;4980637;28;20037;-55
2022/01/13 02:52:32;;;;;;;72.90;30.50;;;6.60;61.60;;;;;;4981875;28;20475;-56
2022/01/13 02:54:59;;;;;;;70.45;32.00;;;6.60;61.60;;;;;;4981286;28;20411;-57
2022/01/13 02:57:25;;;;;;;68.97;31.50;;;6.50;61.60;;;;;;4976503;28;20549;-56
2022/01/13 02:59:51;;;;;;;63.95;29.40;;;6.50;61.60;;;;;;4981885;28;20026;-55
2022/01/13 03:02:17;;;;;;;67.60;30.05;;;6.50;61.70;;;;;;4976242;28;20039;-55
2022/01/13 03:04:47;;;;;;;67.03;30.95;;;6.50;61.80;;;;;;4981335;28;20355;-56
2022/01/13 03:07:14;;;;;;;72.05;29.88;;;6.50;61.80;;;;;;4976634;28;20045;-56
2022/01/13 03:09:42;;;;;;;64.43;28.90;;;6.50;61.90;;;;;;4980527;28;20511;-56
2022/01/13 03:12:09;;;;;;;69.70;30.88;;;6.50;61.90;;;;;;4976151;28;20045;-56
2022/01/13 03:14:35;;;;;;;62.97;30.42;;;6.50;61.90;;;;;;4979442;28;20026;-55
2022/01/13 03:17:01;;;;;;;66.75;28.27;;;6.50;61.80;;;;;;4978013;28;20030;-58
2022/01/13 03:19:27;;;;;;;67.03;29.60;;;6.50;61.90;;;;;;4979434;28;20034;-56
2022/01/13 03:21:53;;;;;;;72.18;30.50;;;6.50;61.90;;;;;;4981884;28;20030;-56
2022/01/13 03:24:20;;;;;;;75.22;32.53;;;6.50;61.80;;;;;;4959972;28;20041;-57
2022/01/13 03:26:49;;;;;;;77.05;33.47;;;6.60;61.80;;;;;;4979880;28;20403;-55
2022/01/13 03:29:16;;;;;;;71.68;30.95;;;6.50;61.70;;;;;;4976542;28;21052;-56
2022/01/13 03:31:44;;;;;;;66.65;31.60;;;6.50;61.70;;;;;;4977120;28;20380;-56
2022/01/13 03:34:13;;;;;;;70.18;30.80;;;6.50;61.70;;;;;;4976798;28;20050;-57
2022/01/13 03:36:41;;;;;;;70.53;30.25;;;6.50;61.80;;;;;;4978754;28;20030;-56
2022/01/13 03:39:09;;;;;;;71.47;32.42;;;6.50;61.80;;;;;;4972525;28;20411;-54
2022/01/13 03:41:36;;;;;;;68.97;30.75;;;6.50;61.90;;;;;;4978388;28;20034;-55
2022/01/13 03:44:07;;;;;;;80.63;32.05;;;6.50;61.90;;;;;;4980030;28;20042;-56
2022/01/13 03:46:37;;;;;;;67.72;30.48;;;6.50;61.70;;;;;;4973791;28;20034;-56
2022/01/13 03:49:07;;;;;;;74.53;33.00;;;6.50;61.60;;;;;;4973244;28;20380;-56
2022/01/13 03:52:23;;;;;;;72.75;29.65;;;6.50;61.30;;;;;;4980036;28;20045;-56
2022/01/13 03:55:21;;;;;;;77.32;30.88;;;6.50;61.30;;;;;;4961783;28;20034;-57
2022/01/13 03:58:21;;;;;;;71.93;31.30;;;6.40;61.20;;;;;;4924305;28;20050;-55
2022/01/13 04:01:05;;;;;;;70.13;31.38;;;6.40;61.20;;;;;;4976792;28;20039;-56
2022/01/13 04:03:32;;;;;;;66.88;30.60;;;6.40;61.20;;;;;;4976732;28;20018;-56
2022/01/13 04:06:12;;;;;;;69.45;30.67;;;6.40;61.40;;;;;;4980027;28;20023;-58
2022/01/13 04:08:39;;;;;;;77.78;32.05;;;6.40;61.30;;;;;;4975475;28;20041;-54
2022/01/13 04:11:06;;;;;;;70.28;31.33;;;6.40;61.30;;;;;;4976913;28;20038;-56
2022/01/13 04:13:48;;;;;;;;;;;;;;;;;;;;;
2022/01/13 04:16:15;;;;;;;76.15;30.40;;;6.40;61.20;;;;;;4980874;28;20026;-54
2022/01/13 04:18:42;;;;;;;70.05;29.38;;;6.40;61.10;;;;;;4976230;28;20042;-55
2022/01/13 04:21:08;;;;;;;68.65;30.88;;;6.30;61.10;;;;;;4980844;28;20030;-57
2022/01/13 04:23:34;;;;;;;74.00;32.05;;;6.30;61.10;;;;;;4981417;28;20038;-57
2022/01/13 04:26:05;;;;;;;63.53;29.63;;;6.30;61.00;;;;;;4978143;28;20034;-53
2022/01/13 04:28:33;;;;;;;79.90;31.40;;;6.30;61.00;;;;;;4974559;28;20524;-56
2022/01/13 04:31:01;;;;;;;68.57;28.55;;;6.30;61.00;;;;;;4973611;28;20042;-58
2022/01/13 04:33:29;;;;;;;72.05;29.83;;;6.20;61.00;;;;;;4975801;28;20022;-53
2022/01/13 04:35:56;;;;;;;68.78;29.75;;;6.20;61.10;;;;;;4973730;28;20027;-56
2022/01/13 04:38:22;;;;;;;69.40;29.42;;;6.10;61.10;;;;;;4957948;28;20049;-56
2022/01/13 04:40:55;;;;;;;64.07;27.83;;;6.20;61.20;;;;;;4975165;28;20041;-54
2022/01/13 04:43:26;;;;;;;67.68;28.15;;;6.20;61.20;;;;;;4980152;28;20487;-56
2022/01/13 04:45:52;;;;;;;69.72;30.25;;;6.10;61.10;;;;;;4974912;28;20029;-56
2022/01/13 04:48:19;;;;;;;63.80;28.65;;;6.10;61.10;;;;;;4971625;28;20030;-56
2022/01/13 04:50:45;;;;;;;67.20;30.33;;;6.10;61.10;;;;;;4978905;28;20506;-54
2022/01/13 04:53:12;;;;;;;65.22;29.20;;;6.10;61.00;;;;;;4975238;28;20510;-55
2022/01/13 04:55:39;;;;;;;68.97;29.58;;;6.10;60.90;;;;;;4977184;28;20045;-56
2022/01/13 04:58:06;;;;;;;68.70;29.30;;;6.10;60.80;;;;;;4972731;28;20038;-55
2022/01/13 05:00:34;;;;;;;68.05;29.10;;;6.00;60.70;;;;;;4975970;28;20030;-56
2022/01/13 05:03:00;;;;;;;67.22;29.02;;;6.00;60.70;;;;;;4977698;28;20372;-56
2022/01/13 05:05:27;;;;;;;61.75;28.45;;;6.00;60.70;;;;;;4977418;28;20042;-56
2022/01/13 05:07:53;;;;;;;66.22;29.67;;;6.00;60.90;;;;;;4975219;28;20029;-56
2022/01/13 05:10:20;;;;;;;70.05;31.08;;;6.00;61.10;;;;;;4978359;28;20042;-54
2022/01/13 05:12:52;;;;;;;68.13;29.23;;;6.00;61.10;;;;;;4981469;28;20033;-54
2022/01/13 05:15:25;;;;;;;66.63;28.77;;;5.90;61.00;;;;;;4972123;28;20565;-57
2022/01/13 05:20:27;;;;;;;59.55;26.65;;;5.90;61.10;;;;;;4978615;28;20030;-56
2022/01/13 05:22:54;;;;;;;66.57;27.17;;;5.90;61.10;;;;;;4950770;28;20035;-54
2022/01/13 05:25:21;;;;;;;63.20;26.58;;;5.90;61.00;;;;;;4977272;28;20026;-57
2022/01/13 05:27:48;;;;;;;54.22;25.15;;;5.80;60.80;;;;;;4978851;28;20042;-53
2022/01/13 05:30:17;;;;;;;68.97;24.70;;;5.80;60.80;;;;;;4977801;28;20034;-56
2022/01/13 05:32:43;;;;;;;56.17;26.08;;;5.80;60.80;;;;;;4974032;28;20564;-56
2022/01/13 05:35:10;;;;;;;53.15;24.10;;;5.80;60.70;;;;;;4962519;28;20502;-56
2022/01/13 05:37:36;;;;;;;56.78;25.15;;;5.70;60.70;;;;;;4975431;28;20043;-57
2022/01/13 05:40:03;;;;;;;63.13;26.40;;;5.70;60.70;;;;;;4975928;28;20498;-56
2022/01/13 05:42:29;;;;;;;67.28;27.55;;;5.70;60.90;;;;;;4961642;28;20346;-54
2022/01/13 05:44:59;;;;;;;67.97;28.13;;;5.70;61.00;;;;;;4981557;28;20027;-54
2022/01/13 05:47:25;;;;;;;65.00;26.40;;;5.60;61.10;;;;;;4969095;28;20023;-53
2022/01/13 05:49:51;;;;;;;58.95;24.77;;;5.60;61.30;;;;;;4976231;28;20033;-56
2022/01/13 05:52:18;;;;;;;59.15;26.00;;;5.60;61.40;;;;;;4973652;28;20030;-56
2022/01/13 05:54:44;;;;;;;180.50;65.35;;;5.60;61.50;;;;;;4977700;28;20038;-53
2022/01/13 05:57:10;;;;;;;113.15;43.03;;;5.60;61.60;;;;;;4968176;28;20035;-57
2022/01/13 05:59:36;;;;;;;70.78;30.20;;;5.60;61.70;;;;;;4970412;28;20449;-54
2022/01/13 06:02:05;;;;;;;54.90;25.48;;;5.50;61.70;;;;;;4975721;28;20041;-54
2022/01/13 06:04:32;;;;;;;57.05;25.15;;;5.60;61.80;;;;;;4975068;28;20441;-56
2022/01/13 06:06:58;;;;;;;70.35;25.85;;;5.60;61.80;;;;;;4976251;28;20037;-57
2022/01/13 06:09:24;;;;;;;60.35;25.17;;;5.60;61.90;;;;;;4974575;28;20033;-56
2022/01/13 06:11:56;;;;;;;60.75;26.23;;;5.60;61.90;;;;;;4965406;28;20042;-54
2022/01/13 06:14:22;;;;;;;66.65;25.55;;;5.60;61.90;;;;;;4969453;28;20369;-56
2022/01/13 06:16:48;;;;;;;55.65;26.63;;;5.60;62.00;;;;;;4971779;28;20046;-56
2022/01/13 06:19:15;;;;;;;54.08;24.58;;;5.60;62.00;;;;;;4974739;28;20035;-56
2022/01/13 06:21:41;;;;;;;62.47;25.95;;;5.60;61.90;;;;;;4981445;28;20031;-56
2022/01/13 06:24:07;;;;;;;72.22;25.02;;;5.60;62.00;;;;;;4962389;28;20035;-57
2022/01/13 06:26:33;;;;;;;65.10;26.70;;;5.60;62.00;;;;;;4974009;28;20342;-53
2022/01/13 06:29:00;;;;;;;60.92;27.13;;;5.60;62.10;;;;;;4977120;28;20018;-53
2022/01/13 06:31:26;;;;;;;65.32;26.60;;;5.60;62.20;;;;;;4973806;28;20182;-57
2022/01/13 06:33:52;;;;;;;135.82;51.53;;;5.50;62.20;;;;;;4949517;28;20042;-56
2022/01/13 06:36:18;;;;;;;131.88;52.05;;;5.60;62.30;;;;;;4976766;28;20033;-58
2022/01/13 06:38:48;;;;;;;75.50;31.52;;;5.60;62.30;;;;;;4975513;28;20043;-56
2022/01/13 06:41:15;;;;;;;68.90;31.02;;;5.60;62.30;;;;;;4955797;28;20042;-54
2022/01/13 06:43:41;;;;;;;70.07;30.00;;;5.60;62.30;;;;;;4970788;28;20038;-58
2022/01/13 06:46:08;;;;;;;60.33;27.23;;;5.60;62.30;;;;;;4967053;28;20022;-56
2022/01/13 06:48:34;;;;;;;62.47;27.50;;;5.60;62.30;;;;;;4957291;28;20038;-56
2022/01/13 06:51:00;;;;;;;62.47;26.70;;;5.60;62.30;;;;;;4955179;28;20038;-55
2022/01/13 06:53:26;;;;;;;58.10;28.00;;;5.60;62.30;;;;;;4959585;28;20045;-56
2022/01/13 06:55:52;;;;;;;59.25;26.45;;;5.60;62.30;;;;;;4960832;28;20035;-56
2022/01/13 06:58:19;;;;;;;57.95;26.98;;;5.60;62.30;;;;;;4958634;28;20054;-57
2022/01/13 07:00:45;;;;;;;58.33;27.52;;;5.60;62.30;;;;;;4961272;28;20417;-56
2022/01/13 07:03:11;;;;;;;58.78;27.55;;;5.50;62.30;;;;;;4957429;28;20021;-56
2022/01/13 07:05:37;;;;;;;59.17;25.80;;;5.60;62.30;;;;;;4947209;28;20026;-56
2022/01/13 07:08:10;;;;;;;65.70;27.50;;;5.60;62.30;;;;;;4957983;28;20039;-56
2022/01/13 07:10:36;;;;;;;60.42;26.40;;;5.60;62.20;;;;;;4953677;28;20031;-56
2022/01/13 07:13:03;;;;;;;51.33;25.20;;;5.50;62.20;;;;;;4948286;28;20046;-55
2022/01/13 07:15:31;;;;;;;57.72;24.88;;;5.60;62.20;;;;;;4954650;28;20027;-57
2022/01/13 07:17:58;;;;;;;61.20;26.50;;;5.60;63.00;;;;;;4956824;28;20030;-57
2022/01/13 07:20:25;;;;;;;60.75;27.80;;;5.60;62.30;;;;;;4959527;28;20388;-57
2022/01/13 07:22:52;;;;;;;52.60;25.25;;;5.60;62.30;;;;;;4954062;28;20035;-58
2022/01/13 07:25:19;;;;;;;58.40;26.92;;;5.60;62.30;;;;;;4956617;28;20031;-55
2022/01/13 07:27:45;;;;;;;54.65;26.02;;;5.60;62.30;;;;;;4955758;28;20022;-56
2022/01/13 07:30:12;;;;;;;56.30;26.08;;;5.60;62.20;;;;;;4953552;28;20023;-56
2022/01/13 07:32:40;;;;;;;53.40;25.83;;;5.60;62.10;;;;;;4952380;28;20034;-56
2022/01/13 07:35:08;;;;;;;53.13;24.58;;;5.60;62.10;;;;;;4952079;28;20387;-54
2022/01/13 07:37:34;;;;;;;62.15;26.50;;;5.60;62.00;;;;;;4960753;28;20059;-55
2022/01/13 07:40:00;;;;;;;55.78;25.70;;;5.60;62.00;;;;;;4951494;28;20033;-58
2022/01/13 07:42:28;;;;;;;58.47;26.85;;;5.60;62.10;;;;;;4954875;28;20319;-54
2022/01/13 07:44:54;;;;;;;60.60;25.55;;;5.60;62.10;;;;;;4958051;28;20331;-54
2022/01/13 07:47:20;;;;;;;56.28;25.88;;;5.50;62.10;;;;;;4953563;28;20938;-54
2022/01/13 07:49:46;;;;;;;54.17;25.17;;;5.50;62.80;;;;;;4956687;28;20042;-55
2022/01/13 07:52:13;;;;;;;62.17;27.67;;;5.50;62.10;;;;;;4957329;28;20050;-58
2022/01/13 07:54:39;;;;;;;61.58;26.95;;;5.50;62.20;;;;;;4956462;28;20034;-56
2022/01/13 07:57:05;;;;;;;57.28;26.38;;;5.50;62.30;;;;;;4956788;28;20053;-57
2022/01/13 07:59:31;;;;;;;66.32;27.55;;;5.50;62.30;;;;;;4956809;28;20027;-56
2022/01/13 08:01:58;;;;;;;65.13;29.58;;;5.50;62.30;;;;;;4970411;28;20043;-56
2022/01/13 08:04:25;;;;;;;67.60;28.45;;;5.50;62.40;;;;;;4959208;28;20035;-56
2022/01/13 08:06:51;;;;;;;52.20;24.23;;;5.50;62.50;;;;;;4957859;28;20035;-57
2022/01/13 08:09:17;;;;;;;57.28;26.58;;;5.50;62.50;;;;;;4956385;28;20399;-58
2022/01/13 08:11:44;;;;;;;57.00;24.58;;;5.50;62.50;;;;;;4955329;28;20031;-56
2022/01/13 08:14:10;;;;;;;53.38;24.48;;;5.50;62.60;;;;;;4956698;28;20038;-55
2022/01/13 08:16:41;;;;;;;49.33;23.98;;;5.50;62.60;;;;;;4958032;28;20027;-58
2022/01/13 08:21:51;;;;;;;55.08;25.55;;;5.50;62.50;;;;;;4959398;28;20053;-57
2022/01/13 08:24:18;;;;;;;50.85;24.17;;;5.60;62.50;;;;;;4956690;28;20019;-56
2022/01/13 08:26:44;;;;;;;53.53;24.20;;;5.60;62.50;;;;;;4955185;28;20026;-55
2022/01/13 08:29:10;;;;;;;50.38;23.30;;;5.60;62.40;;;;;;4951048;28;20042;-55
2022/01/13 08:31:36;;;;;;;50.97;23.45;;;5.60;62.40;;;;;;4953808;28;20065;-58
2022/01/13 08:34:03;;;;;;;48.08;22.63;;;5.60;62.30;;;;;;4949717;28;20070;-55
2022/01/13 08:36:29;;;;;;;49.13;22.63;;;5.60;62.30;;;;;;4952123;28;20383;-55
2022/01/13 08:38:55;;;;;;;47.78;22.20;;;5.60;62.30;;;;;;4967032;28;20038;-57
2022/01/13 08:41:21;;;;;;;47.10;21.27;;;5.60;62.30;;;;;;4974037;28;20427;-57
2022/01/13 08:43:51;;;;;;;51.67;22.35;;;5.50;62.20;;;;;;4974974;28;20045;-57
2022/01/13 08:46:18;;;;;;;50.58;22.23;;;5.60;62.30;;;;;;4977482;28;20018;-56
2022/01/13 08:48:44;;;;;;;49.08;23.45;;;5.60;62.30;;;;;;4972964;28;20026;-57
2022/01/13 08:51:10;;;;;;;55.65;25.27;;;5.60;62.30;;;;;;4949467;28;20049;-56
2022/01/13 08:53:38;;;;;;;157.07;61.05;;;5.60;62.40;;;;;;4980053;28;20903;-58
2022/01/13 08:56:04;;;;;;;69.32;31.98;;;5.60;62.40;;;;;;4975121;28;20467;-53
2022/01/13 08:58:31;;;;;;;59.38;27.67;;;5.60;62.40;;;;;;4978853;28;20359;-56
2022/01/13 09:00:57;;;;;;;61.38;25.52;;;5.70;62.50;;;;;;4974995;28;20034;-57
2022/01/13 09:03:23;;;;;;;55.67;24.92;;;5.60;62.40;;;;;;4975609;28;20386;-56
2022/01/13 09:05:49;;;;;;;55.28;25.55;;;5.70;62.50;;;;;;4976978;28;20027;-57
2022/01/13 09:08:16;;;;;;;53.80;25.27;;;5.70;62.50;;;;;;4976528;28;20030;-53
2022/01/13 09:10:43;;;;;;;55.42;26.48;;;5.70;62.50;;;;;;4959406;28;20030;-58
2022/01/13 09:13:12;;;;;;;53.28;24.45;;;5.70;62.50;;;;;;4976447;28;20041;-56
2022/01/13 09:15:44;;;;;;;49.35;23.33;;;5.70;62.40;;;;;;4963323;28;20034;-55
2022/01/13 09:18:19;;;;;;;54.60;24.60;;;5.70;62.50;;;;;;4967818;28;20050;-55
2022/01/13 09:20:47;;;;;;;59.47;26.20;;;5.70;62.40;;;;;;4971427;28;20030;-58
2022/01/13 09:23:13;;;;;;;54.97;24.52;;;5.80;62.40;;;;;;4971844;28;20045;-58
2022/01/13 09:25:39;;;;;;;48.83;23.80;;;5.80;62.40;;;;;;4966292;28;20026;-58
2022/01/13 09:28:07;;;;;;;54.33;24.85;;;5.80;62.40;;;;;;4952947;28;20061;-56
2022/01/13 09:30:35;;;;;;;53.47;25.42;;;5.80;62.40;;;;;;4972816;28;20483;-57
2022/01/13 09:33:01;;;;;;;50.45;24.25;;;5.80;62.40;;;;;;4972466;28;20065;-56
2022/01/13 09:35:27;;;;;;;59.58;26.98;;;5.80;62.30;;;;;;4977749;28;20034;-56
2022/01/13 09:37:54;;;;;;;52.40;25.02;;;5.80;62.40;;;;;;4979215;28;20058;-55
2022/01/13 09:40:20;;;;;;;57.92;27.10;;;5.90;62.50;;;;;;4981065;28;20026;-55
2022/01/13 09:42:48;;;;;;;57.08;25.83;;;5.90;62.50;;;;;;4979769;28;20034;-58
2022/01/13 09:45:16;;;;;;;58.22;27.88;;;5.90;62.50;;;;;;4980310;28;20498;-56
2022/01/13 09:47:43;;;;;;;56.55;25.45;;;5.90;62.40;;;;;;4976522;28;20114;-57
2022/01/13 09:50:13;;;;;;;56.95;26.67;;;5.90;62.40;;;;;;4960454;28;20475;-57
2022/01/13 09:52:41;;;;;;;54.55;25.75;;;6.00;62.50;;;;;;4976932;28;20511;-56
2022/01/13 09:55:09;;;;;;;53.03;25.58;;;6.00;62.30;;;;;;4973139;28;20050;-58
2022/01/13 09:57:39;;;;;;;63.67;26.15;;;6.00;62.20;;;;;;4976562;28;20026;-56
2022/01/13 10:00:06;;;;;;;60.13;26.90;;;6.00;62.20;;;;;;4978215;28;20077;-56
2022/01/13 10:02:32;;;;;;;60.28;27.27;;;6.00;62.20;;;;;;4979118;28;20030;-55
2022/01/13 10:04:58;;;;;;;57.30;27.48;;;6.00;62.20;;;;;;4950725;28;20035;-58
2022/01/13 10:07:37;;;;;;;57.08;26.23;;;6.10;62.30;;;;;;4964970;28;20026;-56
2022/01/13 10:10:08;;;;;;;58.47;26.20;;;6.10;62.40;;;;;;4976862;28;20042;-57
2022/01/13 10:12:39;;;;;;;53.42;24.60;;;6.10;62.40;;;;;;4966708;28;20408;-55
2022/01/13 10:17:55;;;;;;;54.22;25.58;;;6.10;62.30;;;;;;4963021;28;20637;-56
2022/01/13 10:20:22;;;;;;;54.40;25.17;;;6.10;62.10;;;;;;4975594;28;20526;-56
2022/01/13 10:22:49;;;;;;;53.72;24.70;;;6.20;62.20;;;;;;4968204;28;20026;-56
2022/01/13 10:25:33;;;;;;;49.17;23.48;;;6.20;62.10;;;;;;4970668;28;20532;-55
2022/01/13 10:28:17;;;;;;;48.13;23.83;;;6.20;62.00;;;;;;4951663;28;20042;-56
2022/01/13 10:30:47;;;;;;;47.05;24.02;;;6.20;61.90;;;;;;4969334;28;20058;-57
2022/01/13 10:33:25;;;;;;;47.67;24.17;;;6.20;62.00;;;;;;4959246;28;20030;-57
2022/01/13 10:35:54;;;;;;;46.47;23.73;;;6.20;62.00;;;;;;4966523;28;20049;-57
2022/01/13 10:38:21;;;;;;;51.83;24.65;;;6.20;62.00;;;;;;4975611;28;20038;-55
2022/01/13 10:40:50;;;;;;;50.35;23.85;;;6.20;62.10;;;;;;4976569;28;20062;-55
2022/01/13 10:43:23;;;;;;;49.30;24.35;;;6.20;62.10;;;;;;4973460;28;20026;-53
2022/01/13 10:45:55;;;;;;;61.42;25.85;;;6.20;62.10;;;;;;4971786;28;20026;-57
2022/01/13 10:48:26;;;;;;;53.80;26.50;;;6.20;62.10;;;;;;4975283;28;20418;-58
2022/01/13 10:50:57;;;;;;;58.17;26.10;;;6.20;62.00;;;;;;4977657;28;20342;-57
2022/01/13 10:53:35;;;;;;;59.53;26.67;;;6.20;62.00;;;;;;4978768;28;20049;-55
2022/01/13 10:56:20;;;;;;;62.22;26.83;;;6.20;62.10;;;;;;4971495;28;20035;-56
2022/01/13 10:58:53;;;;;;;57.30;27.27;;;6.20;62.30;;;;;;4966156;28;20038;-54
2022/01/13 11:01:20;;;;;;;53.47;25.88;;;6.20;62.40;;;;;;4970779;28;20031;-54
2022/01/13 11:03:47;;;;;;;55.65;25.95;;;6.20;62.40;;;;;;4962635;28;20475;-55
2022/01/13 11:06:16;;;;;;;55.25;26.10;;;6.20;62.50;;;;;;4976961;28;20034;-56
2022/01/13 11:08:45;;;;;;;58.90;26.13;;;6.20;62.60;;;;;;4976267;28;20035;-55
2022/01/13 11:11:24;;;;;;;55.35;26.00;;;6.20;62.70;;;;;;4977999;28;20392;-56
2022/01/13 11:13:56;;;;;;;52.47;24.65;;;6.20;62.80;;;;;;4977938;28;20037;-55
2022/01/13 11:16:24;;;;;;;55.40;25.85;;;6.20;62.80;;;;;;4966583;28;20049;-57
2022/01/13 11:18:51;;;;;;;53.13;25.02;;;6.20;63.60;;;;;;4965871;28;20037;-55
2022/01/13 11:21:18;;;;;;;54.42;24.98;;;6.30;63.00;;;;;;4967537;28;20030;-56
2022/01/13 11:23:48;;;;;;;52.78;25.33;;;6.30;63.10;;;;;;4967750;28;20468;-56
2022/01/13 11:26:16;;;;;;;52.50;25.17;;;6.30;63.10;;;;;;4978419;28;20041;-56
2022/01/13 11:28:43;;;;;;;54.53;26.85;;;6.30;63.10;;;;;;4975257;28;20022;-54
2022/01/13 11:31:10;;;;;;;54.78;26.13;;;6.30;63.00;;;;;;4972730;28;20030;-56
2022/01/13 11:33:41;;;;;;;62.17;26.20;;;6.40;63.00;;;;;;4976053;28;20026;-53
2022/01/13 11:36:08;;;;;;;51.80;25.42;;;6.40;62.90;;;;;;4971194;28;20034;-58
2022/01/13 11:38:34;;;;;;;50.60;22.70;;;6.40;62.90;;;;;;4974566;28;20400;-56
2022/01/13 11:41:02;;;;;;;48.47;22.65;;;6.40;62.90;;;;;;4978769;28;20038;-58
2022/01/13 11:43:40;;;;;;;48.95;23.15;;;6.40;63.00;;;;;;4979188;28;20033;-56
2022/01/13 11:46:21;;;;;;;52.42;24.40;;;6.40;63.00;;;;;;4977182;28;20058;-56
2022/01/13 11:49:05;;;;;;;51.97;23.33;;;6.40;63.00;;;;;;4976475;28;20038;-56
2022/01/13 11:51:44;;;;;;;;;;;6.40;62.90;;;;;;4973946;28;20034;-56
2022/01/13 11:54:10;;;;;;;48.58;23.17;;;6.50;63.00;;;;;;4978135;28;19921;-57
2022/01/13 11:56:36;;;;;;;48.50;23.27;;;6.50;62.70;;;;;;4978411;28;20037;-57
2022/01/13 11:59:10;;;;;;;43.50;20.65;;;6.50;62.70;;;;;;4972692;28;20690;-55
2022/01/13 12:01:36;;;;;;;49.35;22.42;;;6.50;62.70;;;;;;4955961;28;20358;-57
2022/01/13 12:04:05;;;;;;;54.67;24.13;;;6.50;62.70;;;;;;4977386;28;20037;-57
2022/01/13 12:06:49;;;;;;;55.13;22.15;;;6.50;62.70;;;;;;4979078;28;20026;-56
2022/01/13 12:09:21;;;;;;;47.75;22.27;;;6.50;62.70;;;;;;4975301;28;20050;-56
2022/01/13 12:11:55;;;;;;;51.78;24.05;;;6.60;62.90;;;;;;4974250;28;20030;-57
2022/01/13 12:14:24;;;;;;;54.13;24.08;;;6.60;62.90;;;;;;4978487;28;20386;-57
2022/01/13 12:16:59;;;;;;;49.80;22.65;;;6.60;62.90;;;;;;4976338;28;20030;-55
2022/01/13 12:19:32;;;;;;;47.90;22.25;;;6.60;62.80;;;;;;4959313;28;20513;-54
2022/01/13 12:22:09;;;;;;;51.75;21.60;;;6.60;62.80;;;;;;4979875;28;20026;-53
2022/01/13 12:24:44;;;;;;;44.83;20.63;;;6.70;62.90;;;;;;4972735;28;20035;-56
2022/01/13 12:27:10;;;;;;;45.38;20.27;;;6.70;62.80;;;;;;4978245;28;20038;-57
2022/01/13 12:29:45;;;;;;;48.20;19.67;;;6.70;62.80;;;;;;4976918;28;20030;-54
2022/01/13 12:32:11;;;;;;;42.83;19.60;;;6.70;62.90;;;;;;4978078;28;20382;-56
2022/01/13 12:34:39;;;;;;;46.70;20.88;;;6.80;63.00;;;;;;4978956;28;20019;-55
2022/01/13 12:37:11;;;;;;;41.47;20.15;;;6.80;63.00;;;;;;4977096;28;20049;-54
2022/01/13 12:39:57;;;;;;;40.55;19.95;;;6.80;62.90;;;;;;4976902;28;20031;-56
2022/01/13 12:42:26;;;;;;;46.92;20.15;;;6.90;63.10;;;;;;4977474;28;20567;-56
2022/01/13 12:47:39;;;;;;;39.28;18.33;;;6.90;63.00;;;;;;4971725;28;20049;-56
2022/01/13 12:50:19;;;;;;;43.05;19.52;;;7.00;63.00;;;;;;4977564;28;20046;-56
2022/01/13 12:52:45;;;;;;;47.50;20.05;;;7.00;62.80;;;;;;4977869;28;20422;-52
2022/01/13 12:55:13;;;;;;;40.17;19.08;;;7.00;62.90;;;;;;4961676;28;20039;-56
2022/01/13 12:57:44;;;;;;;40.42;18.85;;;7.00;62.70;;;;;;4972532;28;20386;-57
2022/01/13 13:00:11;;;;;;;38.15;18.70;;;7.10;62.70;;;;;;4978204;28;20053;-56
2022/01/13 13:02:37;;;;;;;37.22;17.63;;;7.10;62.80;;;;;;4975863;28;20038;-54
2022/01/13 13:05:04;;;;;;;41.42;18.65;;;7.10;62.70;;;;;;4979412;28;20031;-56
2022/01/13 13:07:30;;;;;;;34.25;17.50;;;7.20;62.70;;;;;;4977336;28;20025;-55
2022/01/13 13:10:04;;;;;;;36.40;16.88;;;7.20;62.70;;;;;;4976547;28;20042;-56